Time;durP1;ratioP1;P1;durP2;ratioP2;P2;SDS_P1;SDS_P2;PMS_P1;PMS_P2;Temp;Humidity;BMP_temperature;BMP_pressure;BME280_temperature;BME280_humidity;BME280_pressure;Samples;Min_cycle;Max_cycle;Signal;HPM_P1;HPM_P2
2023/10/22 00:01:19;;;;;;;80.38;28.40;;;;;;;2.83;72.99;100320.44;6125895;23;20013;-94
2023/10/22 00:03:45;;;;;;;58.17;26.23;;;;;;;3.17;73.26;100369.22;6101140;23;20036;-94
2023/10/22 00:06:12;;;;;;;68.50;26.60;;;;;;;3.03;73.74;100361.38;6124672;23;20450;-94
2023/10/22 00:08:38;;;;;;;72.53;27.27;;;;;;;2.36;73.88;100250.31;6124745;23;20021;-94
2023/10/22 00:11:07;;;;;;;56.03;26.88;;;;;;;2.35;73.55;100238.69;6151884;23;20036;-94
2023/10/22 00:13:34;;;;;;;67.85;27.33;;;;;;;2.32;73.84;100235.66;6129560;23;20028;-94
2023/10/22 00:16:01;;;;;;;63.75;24.38;;;;;;;2.72;73.58;100280.78;6131768;23;20017;-94
2023/10/22 00:18:29;;;;;;;61.05;24.67;;;;;;;2.55;72.97;100241.03;6133119;23;20017;-95
2023/10/22 00:20:59;;;;;;;56.58;23.20;;;;;;;3.36;72.49;100345.56;6163123;23;20071;-94
2023/10/22 00:23:26;;;;;;;56.65;22.25;;;;;;;2.62;72.27;100230.09;6140001;23;20013;-94
2023/10/22 00:25:55;;;;;;;44.80;22.38;;;;;;;2.54;72.25;100228.56;6092189;23;20005;-95
2023/10/22 00:28:24;;;;;;;52.97;22.70;;;;;;;2.77;72.02;100252.00;6139677;23;20012;-96
2023/10/22 00:30:51;;;;;;;57.28;23.73;;;;;;;2.83;72.25;100266.44;6163455;23;20009;-94
2023/10/22 00:33:21;;;;;;;;;;;;;;;3.32;72.18;100339.00;6188051;23;20027;-94
2023/10/22 00:36:01;;;;;;;51.13;24.05;;;;;;;2.57;72.53;100235.38;6163494;23;19960;-94
2023/10/22 00:38:45;;;;;;;57.17;23.17;;;;;;;2.76;72.97;100268.44;6164445;23;20013;-95
2023/10/22 00:41:14;;;;;;;60.88;24.25;;;;;;;2.43;72.75;100224.00;6164241;23;20167;-94
2023/10/22 00:43:41;;;;;;;52.22;23.88;;;;;;;3.28;73.08;100379.19;6163710;23;20059;-93
2023/10/22 00:46:18;;;;;;;45.60;22.08;;;;;;;2.81;72.79;100311.72;6140364;23;20008;-94
2023/10/22 00:48:47;;;;;;;52.10;22.85;;;;;;;2.98;73.48;100339.69;6164157;23;20021;-93
2023/10/22 00:51:14;;;;;;;53.83;21.52;;;;;;;3.11;72.62;100340.44;6139867;23;19997;-93
2023/10/22 00:53:43;;;;;;;48.67;21.90;;;;;;;3.16;72.24;100329.75;6139553;23;20008;-94
2023/10/22 00:56:10;;;;;;;48.88;21.85;;;;;;;2.68;72.60;100252.59;6138656;23;20048;-93
2023/10/22 00:58:37;;;;;;;48.92;21.58;;;;;;;2.60;72.79;100240.28;6135937;23;20041;-94
2023/10/22 01:01:07;;;;;;;;;;;;;;;3.41;72.25;100359.16;6127714;23;20107;-95
2023/10/22 01:03:40;;;;;;;45.10;19.00;;;;;;;2.59;72.13;100241.34;6184908;23;19957;-95
2023/10/22 01:06:06;;;;;;;47.92;21.63;;;;;;;2.43;72.66;100217.81;6160979;23;20031;-94
2023/10/22 01:08:35;;;;;;;40.95;20.00;;;;;;;3.06;72.35;100331.19;6106750;23;20021;-94
2023/10/22 01:11:12;;;;;;;42.58;19.85;;;;;;;2.67;72.73;100250.97;6125187;23;20028;-94
2023/10/22 01:13:40;;;;;;;47.65;19.88;;;;;;;2.94;72.75;100273.66;6145813;23;20027;-95
2023/10/22 01:16:10;;;;;;;45.97;19.92;;;;;;;3.46;72.73;100352.00;6122514;23;20048;-93
2023/10/22 01:18:36;;;;;;;44.92;21.27;;;;;;;2.93;72.58;100261.22;6123279;23;20091;-94
2023/10/22 01:21:06;;;;;;;56.53;22.98;;;;;;;2.62;72.20;100232.78;6147331;23;20025;-96
2023/10/22 01:23:36;;;;;;;43.88;21.63;;;;;;;3.37;72.45;100363.41;6102265;23;20063;-94
2023/10/22 01:26:07;;;;;;;53.25;20.63;;;;;;;3.26;73.03;100360.50;6095070;23;20006;-95
2023/10/22 01:28:34;;;;;;;43.25;20.35;;;;;;;2.27;73.12;100217.44;6080788;23;20006;-93
2023/10/22 01:31:00;;;;;;;53.17;20.10;;;;;;;2.82;73.07;100272.91;6071210;23;20112;-93
2023/10/22 01:33:26;;;;;;;52.30;22.15;;;;;;;2.61;73.07;100233.81;6089316;23;20025;-94
2023/10/22 01:35:52;;;;;;;50.97;21.17;;;;;;;2.63;73.37;100263.31;6065266;23;20044;-95
2023/10/22 01:38:25;;;;;;;50.15;21.00;;;;;;;3.34;73.56;100340.38;6067087;23;20017;-94
2023/10/22 01:40:53;;;;;;;45.67;19.88;;;;;;;2.60;72.89;100213.31;6069510;23;20368;-95
2023/10/22 01:43:21;;;;;;;45.85;20.30;;;;;;;3.12;72.68;100290.78;6114946;23;20115;-96
2023/10/22 01:45:47;;;;;;;48.63;20.73;;;;;;;3.37;73.15;100355.31;6067137;23;20108;-94
2023/10/22 01:48:14;;;;;;;58.45;18.80;;;;;;;2.43;72.61;100232.09;6114928;23;20013;-95
2023/10/22 01:50:41;;;;;;;29.38;15.32;;;;;;;2.56;71.78;100250.75;6064537;23;20057;-93
2023/10/22 01:53:07;;;;;;;41.25;17.05;;;;;;;2.60;71.94;100237.59;6064890;23;20017;-94
2023/10/22 01:55:36;;;;;;;36.65;16.55;;;;;;;2.62;72.28;100243.59;6087935;23;20014;-94
2023/10/22 01:58:03;;;;;;;33.10;16.00;;;;;;;2.71;73.18;100262.91;6042045;23;20022;-93
2023/10/22 02:00:30;;;;;;;40.35;17.15;;;;;;;2.60;72.50;100207.91;6092164;23;20033;-94
2023/10/22 02:02:57;;;;;;;35.00;16.08;;;;;;;2.66;72.20;100196.16;6084193;23;20028;-95
2023/10/22 02:05:24;;;;;;;35.70;17.17;;;;;;;2.63;72.84;100176.91;6125143;23;20049;-94
2023/10/22 02:07:51;;;;;;;40.37;18.43;;;;;;;2.58;72.82;100175.75;6101314;23;20024;-95
2023/10/22 02:10:20;;;;;;;39.50;18.00;;;;;;;2.78;72.93;100210.44;6150115;23;20084;-96
2023/10/22 02:12:47;;;;;;;44.50;18.05;;;;;;;2.94;72.47;100230.44;6149518;23;20084;-94
2023/10/22 02:15:13;;;;;;;35.40;16.95;;;;;;;3.00;72.59;100229.50;6126122;23;20017;-93
2023/10/22 02:17:40;;;;;;;47.95;16.73;;;;;;;3.02;72.27;100223.88;6151234;23;20020;-94
2023/10/22 02:20:10;;;;;;;38.70;19.00;;;;;;;2.61;72.81;100157.44;6149802;23;20020;-95
2023/10/22 02:22:40;;;;;;;37.97;17.42;;;;;;;3.09;72.02;100221.84;6102837;23;20032;-94
2023/10/22 02:25:07;;;;;;;32.22;16.95;;;;;;;3.35;72.35;100269.06;6125674;23;20025;-94
2023/10/22 02:27:34;;;;;;;28.38;14.70;;;;;;;3.05;71.50;100205.28;6077953;23;20028;-95
2023/10/22 02:30:01;;;;;;;22.50;11.80;;;;;;;2.79;71.01;100146.47;6126670;23;20037;-95
2023/10/22 02:32:28;;;;;;;;;;;;;;;3.64;71.40;100274.44;6126433;23;20057;-94
2023/10/22 02:34:54;;;;;;;28.83;12.13;;;;;;;2.89;71.41;100162.03;6148761;23;20002;-94
2023/10/22 02:37:21;;;;;;;22.73;12.83;;;;;;;2.81;71.75;100172.16;6123746;23;20025;-93
2023/10/22 02:39:48;;;;;;;26.83;13.40;;;;;;;3.02;72.36;100205.78;6123972;23;20017;-96
2023/10/22 02:42:16;;;;;;;20.77;11.10;;;;;;;2.77;72.34;100148.56;6174609;23;20021;-93
2023/10/22 02:44:42;;;;;;;26.23;12.17;;;;;;;2.87;72.10;100167.66;6179799;23;20052;-94
2023/10/22 02:47:11;;;;;;;21.63;11.15;;;;;;;2.73;71.98;100133.91;6136062;23;20245;-91
2023/10/22 02:49:38;;;;;;;22.13;11.82;;;;;;;2.83;72.03;100131.41;6107938;23;20021;-95
2023/10/22 02:52:06;;;;;;;;;;;;;;;3.61;71.81;100259.56;6158572;23;20029;-92
2023/10/22 02:54:33;;;;;;;20.02;10.52;;;;;;;2.78;71.95;100123.19;6160811;23;19916;-92
2023/10/22 02:57:00;;;;;;;23.13;10.15;;;;;;;3.57;71.81;100265.66;6136337;23;20005;-95
2023/10/22 02:59:28;;;;;;;16.87;10.80;;;;;;;2.80;71.99;100148.91;6132746;23;20092;-95
2023/10/22 03:01:56;;;;;;;20.45;10.05;;;;;;;3.09;71.57;100213.72;6156305;23;20013;-94
2023/10/22 03:04:24;;;;;;;20.83;9.30;;;;;;;2.82;70.93;100167.59;6154681;23;20017;-93
2023/10/22 03:06:53;;;;;;;19.48;9.48;;;;;;;3.13;71.79;100212.19;6089712;23;20023;-94
2023/10/22 03:09:20;;;;;;;19.30;9.38;;;;;;;3.41;71.41;100254.59;6056327;23;20019;-94
2023/10/22 03:11:48;;;;;;;19.48;9.77;;;;;;;3.08;70.91;100181.53;6056051;23;20062;-95
2023/10/22 03:14:20;;;;;;;18.05;9.25;;;;;;;3.04;71.07;100186.63;6056927;23;20018;-94
2023/10/22 03:16:47;;;;;;;17.23;9.50;;;;;;;3.36;71.16;100259.91;6033904;23;20031;-96
2023/10/22 03:19:17;;;;;;;19.13;9.63;;;;;;;3.69;71.22;100298.88;6033994;23;20051;-95
2023/10/22 03:21:45;;;;;;;30.98;9.52;;;;;;;3.30;70.87;100223.03;6057109;23;20015;-94
2023/10/22 03:24:12;;;;;;;23.47;9.57;;;;;;;3.09;71.36;100180.50;6035246;23;20019;-93
2023/10/22 03:26:39;;;;;;;19.25;8.88;;;;;;;3.01;71.52;100158.22;6011371;23;20026;-93
2023/10/22 03:29:06;;;;;;;22.40;10.48;;;;;;;3.47;71.95;100234.69;6058095;23;20086;-93
2023/10/22 03:31:33;;;;;;;18.85;9.07;;;;;;;3.42;71.86;100220.28;6022117;23;20011;-93
2023/10/22 03:33:59;;;;;;;14.52;8.80;;;;;;;2.90;71.00;100148.28;6015317;23;20011;-95
2023/10/22 03:36:26;;;;;;;17.13;9.30;;;;;;;2.83;71.60;100136.81;6066566;23;20066;-95
2023/10/22 03:38:52;;;;;;;17.58;8.18;;;;;;;3.67;71.27;100258.53;6092529;23;20018;-94
2023/10/22 03:41:18;;;;;;;13.48;7.25;;;;;;;3.51;70.63;100225.03;6045867;23;20007;-93
2023/10/22 03:44:06;;;;;;;14.18;7.95;;;;;;;3.52;70.92;100215.88;6096263;23;20048;-93
2023/10/22 03:46:32;;;;;;;16.85;7.80;;;;;;;3.17;70.79;100164.69;6145715;23;20009;-94
2023/10/22 03:48:58;;;;;;;15.77;7.43;;;;;;;3.74;71.07;100252.97;6138349;23;20001;-93
2023/10/22 03:51:25;;;;;;;13.23;7.50;;;;;;;3.29;70.25;100178.16;6138576;23;20012;-93
2023/10/22 03:53:56;;;;;;;17.55;8.48;;;;;;;3.20;70.63;100148.00;6163304;23;20001;-94
2023/10/22 03:56:23;;;;;;;18.58;8.43;;;;;;;3.09;70.34;100113.78;6139373;23;20001;-93
2023/10/22 03:58:51;;;;;;;16.33;8.55;;;;;;;2.92;69.91;100075.94;6112820;23;20017;-93
2023/10/22 04:01:37;;;;;;;16.67;9.13;;;;;;;3.33;70.36;100133.38;6076709;23;20013;-92
2023/10/22 04:04:04;;;;;;;17.48;9.48;;;;;;;3.48;70.09;100176.88;6066097;23;20029;-95
2023/10/22 04:06:31;;;;;;;20.23;9.85;;;;;;;2.97;69.91;100089.53;6065693;23;20022;-92
2023/10/22 04:12:10;;;;;;;18.30;10.43;;;;;;;3.01;70.19;100112.31;6010549;23;20664;-94
2023/10/22 04:14:42;;;;;;;16.73;10.32;;;;;;;3.54;70.82;100191.28;5975001;24;20024;-94
2023/10/22 04:17:12;;;;;;;18.35;11.27;;;;;;;3.41;70.28;100159.16;5952838;24;20059;-94
2023/10/22 04:19:40;;;;;;;18.02;10.50;;;;;;;2.79;70.12;100095.16;5957327;24;20042;-94
2023/10/22 04:22:07;;;;;;;21.27;9.32;;;;;;;3.17;70.43;100131.47;5978609;24;20056;-92
2023/10/22 04:24:35;;;;;;;22.92;11.32;;;;;;;3.13;70.65;100116.81;5980281;24;20024;-94
2023/10/22 04:27:43;;;;;;;17.65;9.85;;;;;;;3.67;71.09;100200.94;5954515;24;20028;-94
2023/10/22 04:33:51;;;;;;;16.17;8.95;;;;;;;2.92;70.28;100146.16;6036002;23;20043;-94
2023/10/22 04:36:42;;;;;;;16.20;8.77;;;;;;;3.43;70.77;100230.84;6009464;23;20019;-95
2023/10/22 04:39:34;;;;;;;16.13;8.10;;;;;;;3.33;70.45;100195.53;6034393;23;20037;-93
2023/10/22 04:42:19;;;;;;;12.93;7.30;;;;;;;2.81;69.85;100101.13;6005923;23;20023;-93
2023/10/22 04:44:46;;;;;;;16.25;8.02;;;;;;;2.92;69.74;100111.06;6055305;23;20019;-94
2023/10/22 04:47:39;;;;;;;20.55;7.88;;;;;;;3.68;70.01;100248.56;6136285;23;20025;-94
2023/10/22 04:50:29;;;;;;;13.18;7.72;;;;;;;3.02;70.21;100172.53;6154683;23;20020;-93
2023/10/22 04:54:07;;;;;;;14.32;8.20;;;;;;;3.65;70.54;100262.59;6120359;23;20022;-94
2023/10/22 04:57:02;;;;;;;16.30;7.65;;;;;;;3.66;70.20;100273.13;6097774;23;20050;-96
2023/10/22 05:00:31;;;;;;;16.08;9.00;;;;;;;3.20;70.24;100202.03;6146267;23;20053;-93
2023/10/22 05:03:00;;;;;;;16.52;8.85;;;;;;;3.51;69.86;100241.25;6039813;23;20500;-94
2023/10/22 05:05:38;;;;;;;18.73;9.40;;;;;;;3.68;70.09;100262.09;5993821;23;20019;-93
2023/10/22 05:08:09;;;;;;;21.48;8.48;;;;;;;3.64;70.39;100242.84;6012969;23;20039;-94
2023/10/22 05:10:39;;;;;;;20.67;9.80;;;;;;;3.02;70.20;100138.25;5986104;23;20047;-94
2023/10/22 05:13:09;;;;;;;14.95;8.52;;;;;;;3.24;70.13;100176.16;5962924;23;20023;-92
2023/10/22 05:15:37;;;;;;;18.95;8.85;;;;;;;3.43;70.09;100202.97;5979998;23;20050;-93
2023/10/22 05:18:30;;;;;;;16.75;9.70;;;;;;;3.19;70.05;100172.56;5980492;23;20020;-95
2023/10/22 05:21:04;;;;;;;18.67;9.18;;;;;;;3.26;70.54;100184.06;5936857;23;20023;-94
2023/10/22 05:24:01;;;;;;;18.30;9.52;;;;;;;3.94;70.51;100277.69;6022968;23;20117;-93
2023/10/22 05:26:33;;;;;;;18.33;8.95;;;;;;;3.71;69.80;100242.69;6061081;23;20066;-94
2023/10/22 05:29:01;;;;;;;16.40;9.13;;;;;;;3.96;69.79;100280.94;6014054;23;20023;-95
2023/10/22 05:31:47;;;;;;;20.55;9.20;;;;;;;3.96;70.54;100283.66;6037700;23;20026;-94
2023/10/22 05:34:36;;;;;;;15.40;8.35;;;;;;;3.74;70.42;100242.16;5981367;24;20088;-95
2023/10/22 05:37:14;;;;;;;16.50;8.55;;;;;;;3.47;70.42;100204.13;5978156;24;20024;-94
2023/10/22 05:39:41;;;;;;;17.27;9.15;;;;;;;3.45;70.33;100185.47;5982738;23;20020;-93
2023/10/22 05:42:11;;;;;;;14.88;8.35;;;;;;;3.64;70.08;100226.63;6061064;23;20019;-93
2023/10/22 05:44:38;;;;;;;15.48;8.68;;;;;;;2.89;70.45;100135.84;6072341;23;20022;-94
2023/10/22 05:47:33;;;;;;;15.73;8.55;;;;;;;3.88;70.52;100289.47;6093655;23;20214;-95
2023/10/22 05:50:01;;;;;;;17.65;8.65;;;;;;;3.13;70.14;100168.13;6090005;23;20025;-94
2023/10/22 05:52:50;;;;;;;13.23;7.93;;;;;;;3.71;70.15;100262.44;6046827;23;20061;-92
2023/10/22 05:55:32;;;;;;;13.15;7.95;;;;;;;3.67;70.29;100263.13;6023388;23;20022;-93
2023/10/22 05:57:58;;;;;;;15.05;8.15;;;;;;;3.41;70.50;100235.69;6048145;23;20022;-92
2023/10/22 06:00:52;;;;;;;17.20;8.45;;;;;;;3.82;70.48;100322.91;6157158;23;20033;-93
2023/10/22 06:03:19;;;;;;;19.88;8.68;;;;;;;3.59;70.37;100294.09;6158446;23;20029;-94
2023/10/22 06:06:21;;;;;;;14.93;8.27;;;;;;;3.67;70.57;100320.75;6149706;23;20025;-92
2023/10/22 06:08:54;;;;;;;16.52;8.40;;;;;;;3.91;70.69;100331.47;6101797;23;20024;-92
2023/10/22 06:11:54;;;;;;;13.27;8.10;;;;;;;3.97;70.07;100317.78;6151102;23;20041;-92
2023/10/22 06:14:21;;;;;;;20.05;8.57;;;;;;;3.21;69.84;100192.03;6100332;23;20260;-93
2023/10/22 06:16:49;;;;;;;15.02;8.20;;;;;;;3.46;70.22;100235.75;6078845;23;20081;-93
2023/10/22 06:19:18;;;;;;;22.00;10.23;;;;;;;3.23;70.04;100187.22;6132305;23;20006;-94
2023/10/22 06:26:35;;;;;;;23.17;9.15;;;;;;;3.22;70.08;100194.53;6239591;23;20036;-95
2023/10/22 06:29:26;;;;;;;20.10;11.10;;;;;;;3.17;70.89;100194.41;6189167;23;20476;-94
2023/10/22 06:32:44;;;;;;;23.58;11.50;;;;;;;3.58;70.97;100246.50;6180322;23;20017;-93
2023/10/22 06:35:17;;;;;;;21.80;11.27;;;;;;;3.79;70.63;100274.72;6185515;23;20096;-94
2023/10/22 06:38:35;;;;;;;19.65;10.15;;;;;;;4.10;70.57;100330.13;6219532;23;19996;-95
2023/10/22 06:41:25;;;;;;;25.55;10.55;;;;;;;3.58;71.20;100240.28;6144248;23;20014;-93
2023/10/22 06:44:07;;;;;;;27.33;11.18;;;;;;;4.09;71.26;100314.16;6068620;23;20045;-95
2023/10/22 06:46:34;;;;;;;18.70;8.85;;;;;;;3.79;71.15;100277.41;6069255;23;20479;-94
2023/10/22 06:49:03;;;;;;;17.98;9.75;;;;;;;3.26;71.34;100182.16;6095194;23;20026;-93
2023/10/22 06:51:34;;;;;;;17.80;9.15;;;;;;;3.76;71.51;100265.19;6071351;23;20033;-93
2023/10/22 06:54:21;;;;;;;25.65;8.75;;;;;;;3.30;71.53;100187.91;6096349;23;20037;-94
2023/10/22 06:56:53;;;;;;;15.20;9.20;;;;;;;3.38;71.19;100192.06;6108089;23;20018;-93
2023/10/22 06:59:36;;;;;;;22.17;9.45;;;;;;;3.38;71.11;100165.03;6044493;23;20073;-95
2023/10/22 07:02:28;;;;;;;16.05;9.07;;;;;;;3.47;70.60;100174.41;6056230;23;20019;-94
2023/10/22 07:07:54;;;;;;;25.33;10.15;;;;;;;4.26;70.84;100287.09;6207191;23;20028;-93
2023/10/22 07:10:57;;;;;;;;;;;;;;;4.32;70.98;100286.94;6110167;23;20009;-95
2023/10/22 07:14:13;;;;;;;23.45;10.85;;;;;;;4.33;70.40;100269.59;6180963;23;19940;-93
2023/10/22 07:17:32;;;;;;;35.05;11.52;;;;;;;4.39;70.58;100267.81;6155955;23;20005;-94
2023/10/22 07:20:03;;;;;;;27.08;11.30;;;;;;;4.05;70.41;100229.97;6155063;23;20021;-92
2023/10/22 07:22:42;;;;;;;22.17;10.50;;;;;;;4.14;71.26;100246.59;6155226;23;20044;-92
2023/10/22 07:25:18;;;;;;;21.65;11.20;;;;;;;3.69;70.80;100179.91;6107652;23;20048;-93
2023/10/22 07:37:00;;;;;;;18.33;8.98;;;;;;;3.57;71.00;100147.53;6121445;23;20021;-94
2023/10/22 07:39:52;;;;;;;22.20;9.90;;;;;;;4.18;72.09;100228.81;6077651;23;20147;-94
2023/10/22 07:42:43;;;;;;;15.02;8.63;;;;;;;4.01;71.84;100185.53;6058176;23;20019;-95
2023/10/22 07:45:16;;;;;;;17.35;9.23;;;;;;;4.53;71.55;100285.34;6033874;23;20034;-93
2023/10/22 07:47:54;;;;;;;17.98;9.40;;;;;;;4.07;72.11;100206.16;5985302;23;20038;-93
2023/10/22 07:50:50;;;;;;;17.07;9.20;;;;;;;4.09;71.61;100214.88;6014551;23;20121;-93
2023/10/22 07:53:17;;;;;;;22.27;9.77;;;;;;;3.84;71.24;100152.25;5990821;23;20004;-94
2023/10/22 07:55:47;;;;;;;23.20;11.35;;;;;;;3.89;71.55;100155.06;5984548;23;20014;-94
2023/10/22 07:58:18;;;;;;;22.90;10.85;;;;;;;4.24;71.24;100190.75;5961322;23;20160;-93
2023/10/22 08:01:09;;;;;;;23.88;11.88;;;;;;;4.27;71.44;100175.88;6007093;23;20226;-93
2023/10/22 08:03:51;;;;;;;23.15;10.57;;;;;;;4.83;70.42;100224.50;6006103;23;20126;-94
2023/10/22 08:06:48;;;;;;;17.90;9.32;;;;;;;4.24;69.95;100127.69;5991329;23;20044;-92
2023/10/22 08:09:46;;;;;;;22.77;9.07;;;;;;;4.09;69.93;100103.13;6040780;23;20038;-94
2023/10/22 08:12:23;;;;;;;18.88;9.82;;;;;;;4.22;70.08;100122.50;6011680;23;20023;-91
2023/10/22 08:19:17;;;;;;;16.30;8.73;;;;;;;4.29;70.03;100110.69;5972686;24;20020;-93
2023/10/22 08:21:46;;;;;;;23.27;10.88;;;;;;;4.69;69.65;100148.25;5979485;23;20028;-92
2023/10/22 08:27:50;;;;;;;17.38;9.40;;;;;;;5.06;69.30;100169.22;6178209;23;20024;31
2023/10/22 08:35:07;;;;;;;;;;;;;;;5.17;68.56;100157.44;6181139;23;20031;-93
2023/10/22 08:38:16;;;;;;;18.25;9.07;;;;;;;4.60;68.78;100090.19;6088699;23;19921;-94
2023/10/22 08:40:44;;;;;;;24.13;9.95;;;;;;;4.44;69.35;100064.84;6035237;23;20022;-92
2023/10/22 08:43:18;;;;;;;27.98;11.82;;;;;;;5.19;69.03;100174.22;6011633;23;20023;-90
2023/10/22 08:45:56;;;;;;;21.80;10.15;;;;;;;4.66;68.85;100087.28;6035382;23;20022;-93
2023/10/22 08:48:25;;;;;;;22.63;10.57;;;;;;;4.99;68.51;100127.97;6061584;23;20038;-89
2023/10/22 08:50:54;;;;;;;25.00;10.45;;;;;;;5.24;68.20;100177.00;6042181;23;20066;-93
2023/10/22 09:00:38;;;;;;;19.77;9.35;;;;;;;5.33;67.36;100156.50;6210122;23;20020;-94
2023/10/22 09:03:06;;;;;;;20.17;9.45;;;;;;;5.04;68.19;100090.91;6201067;23;20020;-90
2023/10/22 09:05:55;;;;;;;19.73;10.20;;;;;;;5.35;68.05;100161.66;6157154;23;20024;-91
2023/10/22 09:08:54;;;;;;;20.50;10.20;;;;;;;4.72;67.33;100044.81;6184996;23;20047;-93
2023/10/22 09:11:26;;;;;;;17.10;9.95;;;;;;;5.15;66.98;100113.50;6160532;23;20119;-95
2023/10/22 09:21:11;;;;;;;18.00;10.60;;;;;;;5.38;67.71;100140.25;6211119;23;20025;-95
2023/10/22 09:23:50;;;;;;;16.65;10.65;;;;;;;4.88;67.54;100057.44;6161769;23;20007;-96
2023/10/22 09:26:37;;;;;;;;;;;;;;;5.34;67.65;100138.34;6210158;23;20004;-96
2023/10/22 09:30:27;;;;;;;19.30;10.88;;;;;;;5.32;67.91;100124.19;6146449;23;19916;-94
2023/10/22 09:36:25;;;;;;;22.33;11.80;;;;;;;4.79;67.35;100025.66;6185187;23;20025;-92
2023/10/22 09:38:57;;;;;;;23.45;12.30;;;;;;;5.39;67.73;100119.38;6148982;23;20026;-94
2023/10/22 09:42:50;;;;;;;23.98;11.90;;;;;;;4.65;66.78;100003.59;6179201;23;20025;-92
2023/10/22 09:45:46;;;;;;;24.03;11.70;;;;;;;4.56;67.58;99983.47;6131645;23;20005;-93
2023/10/22 09:58:21;;;;;;;22.95;12.82;;;;;;;4.34;66.93;99932.06;6213764;23;20013;-93
2023/10/22 10:01:40;;;;;;;20.55;11.82;;;;;;;5.23;67.60;100077.78;6152497;23;20097;-93
2023/10/22 10:10:07;;;;;;;21.33;12.40;;;;;;;4.92;67.96;100026.03;6222520;23;20024;-91
2023/10/22 10:12:40;;;;;;;26.23;13.48;;;;;;;5.02;68.21;100048.88;6188594;23;20024;-94
2023/10/22 10:15:40;;;;;;;24.70;12.15;;;;;;;4.55;67.54;99976.41;6148707;23;20013;-94
2023/10/22 10:18:28;;;;;;;24.05;12.05;;;;;;;4.64;67.90;99956.75;6123999;23;20029;-95
2023/10/22 10:22:05;;;;;;;19.33;11.65;;;;;;;4.83;67.49;99997.78;6123626;23;19998;-95
2023/10/22 10:25:22;;;;;;;21.55;11.20;;;;;;;4.96;67.43;100004.66;6179032;23;20059;-90
2023/10/22 10:31:51;;;;;;;16.38;11.13;;;;;;;5.35;67.26;100054.00;6222633;23;20024;-91
2023/10/22 10:34:40;;;;;;;20.10;10.02;;;;;;;5.14;67.45;100028.66;6230876;23;20082;-89
2023/10/22 10:37:16;;;;;;;16.67;9.80;;;;;;;5.31;67.30;100057.50;6179342;23;20037;-91
2023/10/22 10:39:51;;;;;;;18.30;10.63;;;;;;;5.29;67.73;100052.34;6200583;23;20474;-91
2023/10/22 10:42:31;;;;;;;23.83;11.32;;;;;;;5.32;68.13;100048.28;6154798;23;20032;-88
2023/10/22 10:44:57;;;;;;;19.45;11.13;;;;;;;5.36;68.00;100044.81;6176830;23;20064;-88
2023/10/22 10:47:35;;;;;;;19.08;10.52;;;;;;;5.36;67.63;100047.53;6138627;23;20018;-89
2023/10/22 10:50:34;;;;;;;17.73;10.98;;;;;;;5.42;67.65;100042.94;6112950;23;20014;-90
2023/10/22 10:53:02;;;;;;;20.60;10.43;;;;;;;5.45;67.55;100037.00;6047624;23;20026;-90
2023/10/22 10:55:57;;;;;;;17.85;10.85;;;;;;;5.35;67.20;100028.78;6006383;23;20116;-89
2023/10/22 10:58:23;;;;;;;21.60;11.55;;;;;;;5.06;67.56;99990.38;6003859;23;20016;-90
2023/10/22 11:00:52;;;;;;;;;;;;;;;5.29;67.88;100030.66;6052311;23;20027;-88
2023/10/22 11:03:22;;;;;;;19.25;11.75;;;;;;;4.43;68.21;99885.34;6013470;23;19902;-87
2023/10/22 11:05:49;;;;;;;21.88;11.30;;;;;;;5.33;67.23;100014.69;6028806;23;20030;-88
2023/10/22 11:08:22;;;;;;;26.55;10.65;;;;;;;4.61;67.66;99903.09;6032080;23;20019;-88
2023/10/22 11:10:49;;;;;;;19.02;10.35;;;;;;;4.88;67.07;99987.00;6051541;23;20027;-89
2023/10/22 11:13:24;;;;;;;17.70;10.85;;;;;;;4.75;67.55;99954.13;5997336;23;20084;-89
2023/10/22 11:16:06;;;;;;;19.10;10.95;;;;;;;5.32;67.92;100016.56;5996825;23;20540;-88
2023/10/22 11:19:01;;;;;;;18.80;10.68;;;;;;;4.74;67.51;99922.69;5990999;24;20024;-90
2023/10/22 11:21:50;;;;;;;15.98;9.93;;;;;;;4.93;67.46;99932.88;5954315;24;20024;-87
2023/10/22 11:24:27;;;;;;;20.58;11.60;;;;;;;5.43;67.86;100022.91;6006643;23;20117;-90
2023/10/22 11:26:56;;;;;;;21.85;11.45;;;;;;;5.47;68.01;100024.00;6037872;23;20070;-89
2023/10/22 11:29:23;;;;;;;20.38;11.10;;;;;;;5.00;67.45;99951.59;6082158;23;20021;-89
2023/10/22 11:32:16;;;;;;;18.30;10.95;;;;;;;5.08;67.54;99969.25;6120089;23;20444;-89
2023/10/22 11:35:02;;;;;;;24.40;12.38;;;;;;;5.01;67.75;99955.13;6109720;23;20018;-90
2023/10/22 11:37:42;;;;;;;21.45;11.90;;;;;;;5.29;67.95;100003.53;6111075;23;20014;-90
2023/10/22 11:40:40;;;;;;;25.80;12.90;;;;;;;5.26;68.08;100006.78;6114274;23;20028;-86
2023/10/22 11:43:26;;;;;;;;;;;;;;;5.33;68.68;99996.53;6114604;23;20101;-89
2023/10/22 11:45:56;;;;;;;18.45;10.77;;;;;;;4.83;68.61;99913.78;6089014;23;19905;-91
2023/10/22 11:48:47;;;;;;;23.98;11.63;;;;;;;4.84;68.29;99901.09;6094891;23;20022;-92
2023/10/22 11:51:17;;;;;;;15.82;9.80;;;;;;;5.30;68.78;99982.69;6059860;23;20031;-91
2023/10/22 11:54:06;;;;;;;20.65;11.15;;;;;;;4.79;71.08;99887.50;6032370;23;20035;-90
2023/10/22 11:56:46;;;;;;;16.52;9.77;;;;;;;5.21;69.01;99949.84;6053843;23;20003;-91
2023/10/22 11:59:14;;;;;;;25.25;10.98;;;;;;;5.34;68.48;99964.81;6142603;23;20017;-90
2023/10/22 12:01:41;;;;;;;20.67;11.20;;;;;;;4.85;68.34;99891.88;6101928;23;20073;-89
2023/10/22 12:04:10;;;;;;;20.43;11.00;;;;;;;4.96;68.41;99920.66;6151219;23;20017;-88
2023/10/22 12:06:39;;;;;;;21.25;11.65;;;;;;;4.79;68.59;99890.22;6174699;23;20270;-89
2023/10/22 12:09:16;;;;;;;16.42;10.98;;;;;;;5.03;69.06;99925.84;6124868;23;20012;-89
2023/10/22 12:12:11;;;;;;;20.20;11.20;;;;;;;5.27;69.26;99965.06;6118244;23;20025;-92
2023/10/22 12:15:01;;;;;;;23.17;11.75;;;;;;;4.94;68.96;99885.72;6177017;23;20040;-89
2023/10/22 12:17:34;;;;;;;21.58;13.65;;;;;;;4.94;69.09;99868.66;6142204;23;20013;-88
2023/10/22 12:20:04;;;;;;;19.40;11.80;;;;;;;4.77;69.41;99849.88;6174225;23;20027;-88
2023/10/22 12:22:33;;;;;;;19.58;10.88;;;;;;;4.57;68.96;99826.16;6127209;23;20017;-90
2023/10/22 12:25:01;;;;;;;19.05;11.48;;;;;;;4.84;68.83;99865.88;6121437;23;20021;-92
2023/10/22 12:27:29;;;;;;;28.17;11.93;;;;;;;5.12;69.55;99889.88;6148814;23;20021;-89
2023/10/22 12:30:00;;;;;;;19.80;11.52;;;;;;;5.35;69.58;99934.72;6130729;23;20021;-88
2023/10/22 12:32:37;;;;;;;23.58;11.18;;;;;;;4.55;69.78;99798.53;6166763;23;20017;-89
2023/10/22 12:35:05;;;;;;;20.77;12.18;;;;;;;5.08;70.10;99880.63;6123704;23;20102;-90
2023/10/22 12:37:36;;;;;;;26.02;14.38;;;;;;;4.33;69.90;99771.56;6121905;23;20017;-92
2023/10/22 12:46:18;;;;;;;28.45;12.77;;;;;;;4.95;70.09;99846.69;6260808;23;20080;-89
2023/10/22 12:49:38;;;;;;;20.17;11.95;;;;;;;5.20;69.80;99885.88;6186297;23;20024;-88
2023/10/22 12:52:14;;;;;;;24.50;13.15;;;;;;;4.52;70.67;99779.28;6210052;23;20062;-91
2023/10/22 12:55:02;;;;;;;35.25;13.43;;;;;;;4.51;69.86;99761.44;6185777;23;20035;-91
2023/10/22 12:58:38;;;;;;;24.67;13.15;;;;;;;5.21;70.05;99873.13;6183872;23;20054;-89
2023/10/22 13:01:07;;;;;;;25.00;12.70;;;;;;;5.36;70.56;99873.19;6204485;23;20087;-88
2023/10/22 13:03:52;;;;;;;24.77;12.18;;;;;;;5.25;70.24;99852.53;6235891;23;20051;-90
2023/10/22 13:06:43;;;;;;;21.48;13.02;;;;;;;5.33;70.54;99861.00;6230007;23;20397;-88
2023/10/22 13:09:20;;;;;;;22.67;11.63;;;;;;;5.04;70.43;99811.81;6186627;23;20016;-89
2023/10/22 13:14:45;;;;;;;21.50;11.90;;;;;;;5.05;71.19;99813.44;6231707;23;20080;-90
2023/10/22 13:17:11;;;;;;;26.08;12.85;;;;;;;4.85;70.68;99784.34;6147548;23;20020;-91
2023/10/22 13:19:38;;;;;;;26.03;12.60;;;;;;;4.79;70.67;99779.16;6151008;23;20039;-92
2023/10/22 13:22:05;;;;;;;26.10;12.23;;;;;;;4.77;70.68;99792.97;6199788;23;20031;-91
2023/10/22 13:24:34;;;;;;;20.38;12.30;;;;;;;4.80;70.75;99769.94;6200081;23;20036;-93
2023/10/22 13:27:21;;;;;;;25.98;13.18;;;;;;;4.68;70.31;99768.28;6162628;23;20024;-90
2023/10/22 13:29:50;;;;;;;20.80;11.75;;;;;;;5.17;70.43;99845.75;6148660;23;20037;-90
2023/10/22 13:32:17;;;;;;;23.83;13.07;;;;;;;4.76;70.58;99766.16;6114530;23;20021;-89